createdAt,value
2019-01-02T00:14:28.236Z,85.36
2019-01-02T00:23:05.199Z,85.71
2019-01-02T00:25:42.107Z,86.61
2019-01-02T00:28:53.637Z,86.74
2019-01-02T00:31:22.799Z,82.65
2019-01-02T00:33:51.845Z,82.95
2019-01-02T00:36:22.859Z,83.22
2019-01-02T00:38:51.789Z,82.94
2019-01-02T00:41:20.690Z,84.41
2019-01-02T00:43:49.510Z,82.94
2019-01-02T00:46:18.343Z,81.48
2019-01-02T00:48:47.498Z,82.46
2019-01-02T00:51:16.425Z,84.28
2019-01-02T00:55:53.175Z,81.11
2019-01-02T00:58:04.518Z,81.97
2019-01-02T01:03:19.763Z,81.28
2019-01-02T01:09:21.636Z,82.77
2019-01-02T01:11:52.896Z,82.71
2019-01-02T01:28:02.284Z,82.24
2019-01-02T01:34:38.281Z,82.32
2019-01-02T01:49:10.021Z,79.68
2019-01-02T01:51:53.722Z,79.40
2019-01-02T01:54:25.222Z,78.07
2019-01-02T02:00:14.192Z,78.28
2019-01-02T02:02:46.393Z,77.62
2019-01-02T02:05:15.280Z,78.10
2019-01-02T02:07:44.201Z,79.48
2019-01-02T02:10:37.626Z,80.10
2019-01-02T02:13:06.877Z,79.39
2019-01-02T02:15:37.116Z,78.22
2019-01-02T02:18:08.322Z,78.50
2019-01-02T02:20:43.660Z,78.13
2019-01-02T02:23:12.605Z,78.02
2019-01-02T02:25:47.932Z,78.45
2019-01-02T02:28:41.265Z,76.85
2019-01-02T02:36:58.480Z,77.88
2019-01-02T02:39:27.777Z,78.28
2019-01-02T02:41:58.370Z,78.12
2019-01-02T02:44:39.672Z,78.77
2019-01-02T02:47:10.431Z,78.46
2019-01-02T02:49:59.213Z,78.42
2019-01-02T02:52:29.770Z,78.09
2019-01-02T02:55:14.236Z,78.31
2019-01-02T02:57:42.916Z,78.46
2019-01-02T03:00:13.670Z,79.08
2019-01-02T03:02:42.689Z,78.54
2019-01-02T03:05:14.859Z,78.78
2019-01-02T03:07:45.662Z,78.19
2019-01-02T03:10:16.989Z,78.27
2019-01-02T03:12:48.888Z,77.47
2019-01-02T03:15:19.680Z,77.84
2019-01-02T03:17:48.600Z,76.62
2019-01-02T03:20:17.556Z,78.11
2019-01-02T03:22:46.644Z,76.62
2019-01-02T03:25:15.998Z,77.59
2019-01-02T03:27:47.435Z,77.95
2019-01-02T03:30:18.656Z,78.13
2019-01-02T03:32:49.631Z,76.56
2019-01-02T03:35:20.340Z,77.02
2019-01-02T03:37:49.035Z,76.76
2019-01-02T03:40:18.055Z,75.28
2019-01-02T03:42:56.711Z,75.51
2019-01-02T03:48:10.764Z,76.16
2019-01-02T03:50:39.951Z,76.60
2019-01-02T03:53:08.841Z,76.03
2019-01-02T03:55:37.819Z,76.32
2019-01-02T03:58:06.678Z,76.38
2019-01-02T04:00:38.955Z,76.08
2019-01-02T04:12:10.160Z,76.07
2019-01-02T04:14:59.370Z,76.53
2019-01-02T04:17:28.694Z,77.10
2019-01-02T04:20:01.100Z,76.72
2019-01-02T04:22:49.119Z,76.52
2019-01-02T04:25:18.440Z,77.16
2019-01-02T04:27:47.457Z,77.51
2019-01-02T04:30:16.471Z,77.43
2019-01-02T04:32:45.509Z,77.66
2019-01-02T04:35:14.485Z,77.38
2019-01-02T04:38:02.453Z,77.84
2019-01-02T04:40:31.351Z,77.96
2019-01-02T04:43:19.358Z,77.65
2019-01-02T04:45:48.251Z,76.85
2019-01-02T04:48:24.352Z,77.27
2019-01-02T04:53:49.721Z,76.23
2019-01-02T04:56:19.137Z,77.04
2019-01-02T05:02:01.845Z,77.19
2019-01-02T05:07:20.281Z,77.35
2019-01-02T05:09:49.279Z,77.06
2019-01-02T05:18:43.314Z,77.61
2019-01-02T05:21:12.746Z,78.30
2019-01-02T05:33:20.722Z,77.98
2019-01-02T05:35:49.936Z,77.97
2019-01-02T05:50:02.170Z,79.20
2019-01-02T05:52:31.386Z,78.76
2019-01-02T06:00:54.187Z,79.16
2019-01-02T06:03:23.050Z,78.99
2019-01-02T06:08:42.209Z,79.57
2019-01-02T06:11:11.199Z,79.31
2019-01-02T06:13:40.166Z,79.54
2019-01-02T06:16:09.035Z,79.70
2019-01-02T06:21:21.903Z,80.25
2019-01-02T06:23:51.209Z,80.50
2019-01-02T06:29:17.740Z,80.32
2019-01-02T06:31:46.697Z,80.18
2019-01-02T06:34:16.414Z,80.48
2019-01-02T06:36:45.257Z,81.08
2019-01-02T06:42:22.221Z,79.85
2019-01-02T06:44:37.129Z,79.70
2019-01-02T06:47:06.177Z,79.73
2019-01-02T06:49:54.152Z,80.22
2019-01-02T06:52:37.993Z,80.20
2019-01-02T06:58:11.478Z,80.23
2019-01-02T07:00:42.171Z,80.26
2019-01-02T07:03:16.582Z,80.62
2019-01-02T07:06:04.551Z,80.96
2019-01-02T07:08:33.468Z,81.58
2019-01-02T07:11:02.447Z,81.58
2019-01-02T08:48:18.102Z,80.03
2019-01-02T08:51:25.385Z,80.27
2019-01-02T08:54:32.603Z,80.62
2019-01-02T08:57:39.736Z,81.23
2019-01-02T09:10:08.630Z,79.35
2019-01-02T09:23:16.729Z,79.63
2019-01-02T09:26:23.867Z,79.57
2019-01-02T09:29:31.000Z,79.90
2019-01-02T09:32:32.249Z,79.31
2019-01-02T09:35:39.393Z,79.25
2019-01-02T09:38:46.536Z,79.68
2019-01-02T09:41:56.487Z,79.16
2019-01-02T09:45:01.030Z,79.03
2019-01-02T09:47:54.085Z,78.48
2019-01-02T09:51:05.164Z,78.60
2019-01-02T09:54:09.705Z,78.14
2019-01-02T09:57:10.313Z,77.50
2019-01-02T10:00:03.571Z,77.10
2019-01-02T10:03:12.220Z,76.68
2019-01-02T10:06:24.200Z,76.44
2019-01-02T10:09:16.799Z,76.83
2019-01-02T10:12:14.138Z,76.63
2019-01-02T10:15:21.580Z,76.76
2019-01-02T10:18:37.423Z,76.38
2019-01-02T10:21:26.385Z,75.75
2019-01-02T10:24:21.529Z,76.24
2019-01-02T10:27:46.348Z,75.83
2019-01-02T10:31:07.405Z,75.69
2019-01-02T10:34:11.859Z,75.05
2019-01-02T10:37:30.871Z,75.83
2019-01-02T10:40:41.300Z,76.49
2019-01-02T10:43:45.024Z,76.30
2019-01-02T10:46:51.662Z,77.62
2019-01-02T10:50:10.701Z,77.92
2019-01-02T10:53:35.805Z,77.84
2019-01-02T10:56:30.141Z,78.52
2019-01-02T10:59:34.632Z,79.67
2019-01-02T11:02:41.915Z,80.78
2019-01-02T11:12:45.071Z,80.73
2019-01-02T11:24:46.283Z,77.94
2019-01-02T11:45:37.890Z,70.86
2019-01-02T13:27:57.421Z,50.28
2019-01-02T13:30:57.761Z,49.90
2019-01-02T13:33:43.074Z,48.62
2019-01-02T13:40:16.941Z,50.13
2019-01-02T13:46:25.724Z,50.42
2019-01-02T13:49:14.742Z,50.63
2019-01-02T13:51:49.252Z,50.02
2019-01-02T13:54:17.946Z,49.16
2019-01-02T13:56:48.905Z,48.54
2019-01-02T13:59:17.544Z,48.43
2019-01-02T14:02:04.518Z,47.72
2019-01-02T14:04:33.785Z,47.63
2019-01-02T14:07:02.450Z,48.31
2019-01-02T14:09:31.167Z,49.19
2019-01-02T14:11:59.940Z,48.46
2019-01-02T14:14:28.594Z,49.99
2019-01-02T14:17:25.080Z,48.56
2019-01-02T14:20:07.611Z,48.18
2019-01-02T14:22:36.257Z,47.79
2019-01-02T14:25:05.045Z,48.61
2019-01-02T14:27:33.837Z,47.34
2019-01-02T14:30:02.511Z,47.66
2019-01-02T14:32:31.158Z,48.17
2019-01-02T14:34:59.829Z,49.21
2019-01-02T14:37:28.563Z,48.94
2019-01-02T14:39:57.258Z,49.68
2019-01-02T14:42:25.873Z,49.86
2019-01-02T14:44:54.504Z,50.72
2019-01-02T14:47:24.464Z,50.19
2019-01-02T14:50:50.007Z,49.62
2019-01-02T14:54:53.912Z,49.35
2019-01-02T15:09:11.286Z,49.35
2019-01-02T15:12:24.424Z,49.24
2019-01-02T15:14:50.493Z,48.83
2019-01-02T16:16:36.476Z,54.52
2019-01-02T16:19:06.168Z,53.93
2019-01-02T16:21:35.733Z,53.64
2019-01-02T16:24:04.347Z,54.09
2019-01-02T16:26:33.003Z,54.04
2019-01-02T16:29:01.708Z,54.68
2019-01-02T16:31:30.363Z,54.75
2019-01-02T16:33:59.093Z,55.05
2019-01-02T16:36:27.794Z,54.94
2019-01-02T16:38:56.532Z,54.51
2019-01-02T16:41:25.242Z,54.49
2019-01-02T16:43:54.062Z,54.46
2019-01-02T16:46:22.783Z,54.66
2019-01-02T16:48:51.542Z,54.33
2019-01-02T16:51:20.237Z,52.78
2019-01-02T16:53:48.953Z,52.28
2019-01-02T16:56:17.928Z,51.86
2019-01-02T16:58:46.734Z,52.80
2019-01-02T17:01:16.459Z,53.28
2019-01-02T17:03:46.573Z,53.22
2019-01-02T17:06:16.015Z,53.70
2019-01-02T17:08:45.137Z,53.85
2019-01-02T17:11:13.841Z,54.60
2019-01-02T17:13:44.891Z,53.48
2019-01-02T17:16:13.557Z,53.44
2019-01-02T17:18:42.218Z,53.91
2019-01-02T17:21:10.991Z,53.11
2019-01-02T17:23:39.980Z,53.59
2019-01-02T17:26:10.003Z,54.15
2019-01-02T17:28:38.871Z,53.67
2019-01-02T17:31:07.569Z,54.55
2019-01-02T17:33:36.286Z,54.27
2019-01-02T17:36:05.597Z,53.72
2019-01-02T17:38:34.448Z,53.95
2019-01-02T17:41:03.077Z,54.10
2019-01-02T17:43:32.704Z,53.86
2019-01-02T17:46:01.808Z,54.74
2019-01-02T17:48:30.628Z,55.56
2019-01-02T17:50:59.768Z,53.77
2019-01-02T17:53:28.853Z,53.42
2019-01-02T17:55:57.510Z,54.40
2019-01-02T17:58:26.295Z,53.82
2019-01-02T18:01:23.985Z,54.96
2019-01-02T18:03:55.236Z,54.25
2019-01-02T18:06:49.542Z,54.93
2019-01-02T18:09:18.237Z,54.87
2019-01-02T18:11:47.198Z,55.23
2019-01-02T18:14:15.975Z,54.84
2019-01-02T18:17:14.856Z,54.66
2019-01-02T18:20:05.470Z,54.81
2019-01-02T18:22:55.345Z,56.01
2019-01-02T18:28:25.202Z,56.52
2019-01-02T18:31:22.185Z,56.63
2019-01-02T18:34:06.696Z,56.94
2019-01-02T18:36:49.740Z,57.50
2019-01-02T18:39:19.462Z,58.15
2019-01-02T18:41:48.490Z,57.35
2019-01-02T18:44:20.528Z,57.73
2019-01-02T18:46:48.059Z,59.33
2019-01-02T18:49:17.539Z,59.56
2019-01-02T18:51:46.403Z,59.85
2019-01-02T18:54:16.966Z,59.13
2019-01-02T18:56:45.999Z,60.08
2019-01-02T18:59:14.900Z,62.07
2019-01-02T19:04:35.046Z,60.63
2019-01-02T19:07:09.488Z,63.02
2019-01-02T19:09:38.438Z,62.65
2019-01-02T19:12:07.469Z,64.36
2019-01-02T19:14:37.101Z,64.44
2019-01-02T19:17:07.990Z,65.90
2019-01-02T19:20:10.894Z,66.56
2019-01-02T19:40:00.783Z,69.05
2019-01-02T20:12:02.775Z,71.88
2019-01-02T20:25:47.133Z,66.64
2019-01-02T20:28:48.270Z,66.24
2019-01-02T20:35:05.851Z,65.19
2019-01-02T20:38:07.879Z,66.41
2019-01-02T21:20:40.321Z,60.64
2019-01-02T21:54:45.523Z,64.85
2019-01-02T22:42:20.507Z,77.42
2019-01-02T23:41:08.629Z,80.61
2019-01-02T23:44:05.304Z,80.78
2019-01-02T23:46:52.224Z,80.40
2019-01-02T23:49:45.730Z,80.14
2019-01-02T23:52:32.052Z,79.07
2019-01-02T23:55:28.716Z,78.39
2019-01-02T23:58:35.511Z,78.98
